Time;durP1;ratioP1;P1;durP2;ratioP2;P2;SDS_P1;SDS_P2;PMS_P1;PMS_P2;Temp;Humidity;BMP_temperature;BMP_pressure;BME280_temperature;BME280_humidity;BME280_pressure;Samples;Min_cycle;Max_cycle;Signal;HPM_P1;HPM_P2
2021/05/09 00:01:34;;;;;;;7.90;2.30;;;20.90;96.60;;;;;;5007158;28;20329;-76
2021/05/09 00:04:01;;;;;;;8.00;2.10;;;21.00;94.40;;;;;;5040183;28;20228;-76
2021/05/09 00:06:29;;;;;;;4.67;1.90;;;20.90;93.20;;;;;;5025905;28;20214;-72
2021/05/09 00:08:57;;;;;;;7.90;2.20;;;21.00;92.00;;;;;;5009142;28;20429;-74
2021/05/09 00:11:29;;;;;;;5.30;1.73;;;21.10;91.40;;;;;;5009642;28;20326;-77
2021/05/09 00:14:03;;;;;;;3.97;1.77;;;21.00;90.10;;;;;;5026987;28;20236;-77
2021/05/09 00:16:32;;;;;;;4.07;1.60;;;21.10;89.80;;;;;;5044176;28;20188;-75
2021/05/09 00:18:59;;;;;;;3.40;1.80;;;21.00;89.80;;;;;;5038734;28;20187;-77
2021/05/09 00:21:27;;;;;;;3.13;1.80;;;20.90;90.20;;;;;;5015679;28;20188;-75
2021/05/09 00:23:55;;;;;;;7.13;2.00;;;20.80;90.50;;;;;;5025113;28;20269;-78
2021/05/09 00:26:22;;;;;;;8.90;2.47;;;20.80;91.40;;;;;;5024166;28;20238;-76
2021/05/09 00:28:48;;;;;;;6.67;2.27;;;21.00;94.50;;;;;;5027189;28;20191;-74
2021/05/09 00:31:17;;;;;;;6.27;2.07;;;20.80;93.50;;;;;;5025774;28;20190;-77
2021/05/09 00:33:45;;;;;;;5.03;2.10;;;20.50;94.30;;;;;;5027316;28;20191;-75
2021/05/09 00:36:12;;;;;;;6.43;1.80;;;20.50;93.90;;;;;;5026190;28;20223;-76
2021/05/09 00:38:38;;;;;;;4.83;1.77;;;20.40;93.30;;;;;;5017475;28;20194;-76
2021/05/09 00:41:06;;;;;;;6.93;2.50;;;20.40;93.70;;;;;;5021239;28;20189;-77
2021/05/09 00:43:33;;;;;;;9.17;2.40;;;20.50;95.50;;;;;;5016356;28;20204;-77
2021/05/09 00:46:00;;;;;;;7.07;2.10;;;20.60;97.00;;;;;;5016411;28;20264;-75
2021/05/09 00:48:26;;;;;;;8.77;2.93;;;20.50;97.80;;;;;;5022258;28;20637;-75
2021/05/09 00:50:53;;;;;;;7.17;3.17;;;20.40;99.90;;;;;;5016048;28;20486;-75
2021/05/09 00:53:26;;;;;;;8.80;3.07;;;20.30;99.90;;;;;;5015755;28;20216;-74
2021/05/09 00:55:58;;;;;;;8.80;2.83;;;20.30;99.90;;;;;;5029991;28;20184;-74
2021/05/09 00:58:30;;;;;;;7.77;2.80;;;20.30;99.90;;;;;;5038132;28;20814;-77
2021/05/09 01:00:57;;;;;;;14.50;2.80;;;20.20;99.90;;;;;;5012347;28;20188;-75
2021/05/09 01:03:27;;;;;;;12.50;3.27;;;20.40;99.90;;;;;;5015187;28;20561;-77
2021/05/09 01:06:00;;;;;;;10.00;3.10;;;20.50;99.90;;;;;;5004084;28;20227;-75
2021/05/09 01:08:29;;;;;;;10.87;3.83;;;20.40;99.90;;;;;;5028227;28;20219;-76
2021/05/09 01:10:56;;;;;;;9.27;4.03;;;20.30;99.90;;;;;;5013970;28;20188;-76
2021/05/09 01:13:25;;;;;;;12.80;4.23;;;20.10;99.90;;;;;;5014294;28;20211;-75
2021/05/09 01:15:54;;;;;;;12.73;4.07;;;19.90;99.90;;;;;;5018356;28;20672;-77
2021/05/09 01:18:20;;;;;;;16.63;4.20;;;19.70;99.90;;;;;;5016054;28;20703;-74
2021/05/09 01:20:47;;;;;;;16.87;4.10;;;19.80;99.90;;;;;;5014336;28;20239;-77
2021/05/09 01:23:14;;;;;;;12.00;4.33;;;19.90;99.90;;;;;;5038954;28;20209;-76
2021/05/09 01:25:41;;;;;;;12.07;4.00;;;19.90;99.90;;;;;;5012179;28;20185;-75
2021/05/09 01:28:08;;;;;;;15.00;4.97;;;19.90;99.90;;;;;;5028607;28;20192;-75
2021/05/09 01:30:35;;;;;;;10.43;3.97;;;19.60;99.90;;;;;;5011578;28;20189;-75
2021/05/09 01:33:04;;;;;;;12.10;3.60;;;19.70;99.90;;;;;;5022669;28;20184;-76
2021/05/09 01:35:30;;;;;;;13.07;3.60;;;19.70;99.90;;;;;;5024529;28;20236;-74
2021/05/09 01:37:57;;;;;;;10.87;3.20;;;19.70;99.90;;;;;;5016969;28;20200;-77
2021/05/09 01:40:24;;;;;;;16.33;3.50;;;19.70;99.90;;;;;;5014262;28;20637;-75
2021/05/09 01:42:50;;;;;;;7.70;2.70;;;19.80;99.90;;;;;;5033861;28;20221;-78
2021/05/09 01:45:17;;;;;;;9.97;2.80;;;19.80;99.90;;;;;;5009156;28;20177;-75
2021/05/09 01:47:43;;;;;;;10.77;3.27;;;19.70;99.90;;;;;;5022336;28;20640;-76
2021/05/09 01:50:14;;;;;;;11.30;2.77;;;19.80;99.90;;;;;;5032482;28;20240;-76
2021/05/09 01:52:43;;;;;;;8.30;2.70;;;19.60;99.90;;;;;;5050539;28;20195;-76
2021/05/09 01:55:15;;;;;;;8.77;3.13;;;19.40;99.90;;;;;;5030942;28;20180;-77
2021/05/09 01:57:45;;;;;;;9.67;2.53;;;19.30;99.90;;;;;;5025484;28;20187;-77
2021/05/09 02:00:17;;;;;;;9.63;3.20;;;19.40;99.90;;;;;;5026807;28;20196;-76
2021/05/09 02:02:46;;;;;;;9.40;3.00;;;19.20;99.90;;;;;;5016891;28;20270;-74
2021/05/09 02:05:13;;;;;;;9.40;2.70;;;19.10;99.90;;;;;;5014099;28;20187;-75
2021/05/09 02:07:40;;;;;;;8.87;2.80;;;19.00;99.90;;;;;;5012773;28;20878;-75
2021/05/09 02:10:09;;;;;;;5.77;2.40;;;19.10;99.90;;;;;;5009960;28;20199;-75
2021/05/09 02:12:37;;;;;;;6.53;2.90;;;19.20;99.90;;;;;;5026226;28;20188;-74
2021/05/09 02:15:09;;;;;;;8.03;2.43;;;19.00;99.90;;;;;;5011937;28;20508;-74
2021/05/09 02:17:35;;;;;;;6.23;2.80;;;19.00;99.90;;;;;;5008589;28;20317;-76
2021/05/09 02:20:06;;;;;;;9.90;2.60;;;19.00;99.90;;;;;;5028720;28;20270;-76
2021/05/09 02:22:32;;;;;;;8.07;2.40;;;18.60;99.90;;;;;;5025403;28;20744;-76
2021/05/09 02:24:59;;;;;;;6.40;2.40;;;18.60;99.90;;;;;;5030328;28;20192;-74
2021/05/09 02:27:25;;;;;;;9.80;2.50;;;18.70;99.90;;;;;;5011103;28;20275;-76
2021/05/09 02:29:52;;;;;;;9.73;2.60;;;18.80;99.90;;;;;;5021462;28;20329;-77
2021/05/09 02:32:18;;;;;;;12.10;2.27;;;18.90;99.90;;;;;;5014293;28;20295;-77
2021/05/09 02:34:44;;;;;;;10.37;2.30;;;19.00;99.90;;;;;;5029185;28;20203;-75
2021/05/09 02:37:10;;;;;;;5.27;2.30;;;18.90;99.90;;;;;;5007892;28;20212;-76
2021/05/09 02:39:37;;;;;;;8.07;2.53;;;19.10;99.90;;;;;;5007842;28;20195;-76
2021/05/09 02:42:04;;;;;;;7.50;2.73;;;19.00;99.90;;;;;;5007501;28;20273;-74
2021/05/09 02:44:31;;;;;;;8.03;2.20;;;19.00;99.90;;;;;;5029486;28;20184;-75
2021/05/09 02:47:03;;;;;;;7.67;2.50;;;19.10;99.90;;;;;;5026521;28;20188;-75
2021/05/09 02:49:30;;;;;;;5.73;2.03;;;19.50;99.90;;;;;;5024692;28;20188;-74
2021/05/09 02:51:56;;;;;;;8.87;2.67;;;19.70;99.90;;;;;;5026605;28;20203;-75
2021/05/09 02:54:22;;;;;;;9.67;2.80;;;19.80;99.90;;;;;;5029198;28;20188;-74
2021/05/09 02:56:49;;;;;;;7.97;2.07;;;19.90;99.90;;;;;;5010045;28;20185;-75
2021/05/09 02:59:15;;;;;;;8.30;2.20;;;20.00;99.90;;;;;;5048372;28;20674;-75
2021/05/09 03:01:41;;;;;;;6.07;1.90;;;20.10;99.90;;;;;;5010795;28;20168;-77
2021/05/09 03:04:07;;;;;;;5.90;2.30;;;20.90;95.10;;;;;;5037924;28;20261;-77
2021/05/09 03:06:34;;;;;;;6.67;2.10;;;22.00;87.10;;;;;;5039900;28;20185;-77
2021/05/09 03:09:00;;;;;;;10.00;1.70;;;22.30;84.70;;;;;;5025894;28;20264;-75
2021/05/09 03:11:29;;;;;;;4.13;2.10;;;22.30;84.10;;;;;;5023679;28;20665;-77
2021/05/09 03:13:56;;;;;;;10.47;2.97;;;22.00;84.10;;;;;;5009247;28;20276;-76
2021/05/09 03:16:23;;;;;;;8.50;2.50;;;21.70;99.90;;;;;;5044067;28;20197;-73
2021/05/09 03:18:50;;;;;;;6.70;1.70;;;21.30;99.90;;;;;;5044478;28;20235;-78
2021/05/09 03:21:16;;;;;;;3.57;1.80;;;22.10;80.00;;;;;;5034877;28;20215;-75
2021/05/09 03:23:43;;;;;;;8.50;1.83;;;23.00;71.20;;;;;;5015341;28;20254;-74
2021/05/09 03:26:10;;;;;;;7.63;1.60;;;23.00;70.20;;;;;;5025895;28;20218;-74
2021/05/09 03:28:39;;;;;;;10.43;1.73;;;22.90;67.40;;;;;;5006954;28;20192;-77
2021/05/09 03:31:05;;;;;;;10.87;2.60;;;23.00;66.20;;;;;;5008729;28;20820;-76
2021/05/09 03:33:31;;;;;;;4.53;2.30;;;22.20;98.90;;;;;;5024310;28;20234;-77
2021/05/09 03:35:57;;;;;;;8.50;3.00;;;21.50;99.90;;;;;;5004416;28;20701;-77
2021/05/09 03:38:24;;;;;;;4.93;2.30;;;21.20;99.90;;;;;;5026908;28;20200;-78
2021/05/09 03:40:50;;;;;;;9.00;2.37;;;21.00;99.90;;;;;;5021343;28;20246;-76
2021/05/09 03:43:16;;;;;;;10.60;2.73;;;20.90;99.90;;;;;;5018191;28;20719;-74
2021/05/09 03:45:43;;;;;;;4.47;2.47;;;20.80;99.90;;;;;;5037536;28;20222;-75
2021/05/09 03:48:09;;;;;;;9.70;2.70;;;20.60;99.90;;;;;;5033309;28;20212;-74
2021/05/09 03:50:35;;;;;;;9.80;2.57;;;20.50;99.90;;;;;;5013121;28;20806;-75
2021/05/09 03:53:02;;;;;;;10.10;2.33;;;20.40;99.90;;;;;;5011985;28;20264;-74
2021/05/09 03:55:28;;;;;;;9.93;2.40;;;20.20;99.90;;;;;;5025204;28;20222;-75
2021/05/09 03:57:54;;;;;;;9.17;1.90;;;20.20;99.80;;;;;;5023779;28;20267;-76
2021/05/09 04:00:21;;;;;;;5.67;1.87;;;20.30;98.20;;;;;;5024105;28;20197;-74
2021/05/09 04:02:47;;;;;;;5.73;1.80;;;20.20;97.80;;;;;;5015342;28;20196;-75
2021/05/09 04:05:14;;;;;;;7.10;2.20;;;20.10;97.50;;;;;;5029620;28;20207;-76
2021/05/09 04:07:41;;;;;;;11.10;2.70;;;20.20;98.80;;;;;;5006447;28;20188;-74
2021/05/09 04:10:08;;;;;;;10.70;3.23;;;20.40;99.90;;;;;;5021012;28;20395;-77
2021/05/09 04:12:34;;;;;;;10.90;3.53;;;20.50;99.90;;;;;;5032908;28;20222;-76
2021/05/09 04:15:00;;;;;;;9.50;3.30;;;20.40;99.90;;;;;;5007567;28;20199;-76
2021/05/09 04:17:26;;;;;;;10.70;3.47;;;20.30;99.90;;;;;;5008985;28;20196;-75
2021/05/09 04:19:53;;;;;;;5.83;3.13;;;20.40;99.90;;;;;;5035791;28;20633;-77
2021/05/09 04:22:19;;;;;;;10.73;3.40;;;20.50;99.90;;;;;;5011111;28;20631;-75
2021/05/09 04:24:45;;;;;;;13.13;3.67;;;20.40;99.90;;;;;;5031832;28;20895;-75
2021/05/09 04:27:11;;;;;;;16.60;3.63;;;20.50;99.90;;;;;;5030788;28;20707;-76
2021/05/09 04:29:38;;;;;;;16.47;3.70;;;20.50;99.90;;;;;;5021902;28;20692;-76
2021/05/09 04:32:05;;;;;;;10.33;3.33;;;20.60;99.90;;;;;;5027788;28;20192;-75
2021/05/09 04:34:31;;;;;;;16.77;3.87;;;20.50;99.90;;;;;;5027946;28;20249;-76
2021/05/09 04:36:58;;;;;;;10.97;3.43;;;20.60;99.90;;;;;;5024089;28;20204;-75
2021/05/09 04:39:24;;;;;;;11.13;3.20;;;20.70;99.90;;;;;;5014474;28;20238;-75
2021/05/09 04:41:51;;;;;;;9.13;2.90;;;20.70;99.90;;;;;;5025185;28;20528;-74
2021/05/09 04:44:18;;;;;;;16.70;3.70;;;20.70;99.90;;;;;;5016786;28;20302;-75
2021/05/09 04:46:45;;;;;;;12.37;3.37;;;20.80;99.90;;;;;;5007823;28;20202;-74
2021/05/09 04:49:11;;;;;;;13.50;3.73;;;20.90;99.90;;;;;;5014756;28;20863;-75
2021/05/09 04:51:37;;;;;;;14.83;3.67;;;21.00;99.90;;;;;;5009974;28;20333;-74
2021/05/09 04:54:04;;;;;;;14.47;3.70;;;21.10;99.90;;;;;;5014696;28;20652;-75
2021/05/09 04:56:30;;;;;;;15.53;3.50;;;21.00;99.90;;;;;;5023502;28;20197;-76
2021/05/09 04:58:56;;;;;;;10.40;3.60;;;21.00;99.90;;;;;;5026441;28;20196;-73
2021/05/09 05:01:23;;;;;;;8.20;3.40;;;21.10;99.90;;;;;;5013250;28;20200;-74
2021/05/09 05:03:49;;;;;;;11.27;3.70;;;21.10;99.90;;;;;;5019587;28;20208;-78
2021/05/09 05:06:15;;;;;;;14.97;4.13;;;21.20;99.90;;;;;;5031974;28;20909;-76
2021/05/09 05:08:42;;;;;;;9.73;3.47;;;21.40;99.90;;;;;;5018845;28;20189;-75
2021/05/09 05:11:08;;;;;;;12.23;3.97;;;21.30;99.90;;;;;;5019846;28;20184;-74
2021/05/09 05:13:36;;;;;;;8.53;3.67;;;21.30;99.90;;;;;;5035582;28;20277;-74
2021/05/09 05:16:09;;;;;;;12.97;4.10;;;21.30;99.90;;;;;;5049136;28;20306;-75
2021/05/09 05:18:37;;;;;;;18.43;4.43;;;21.30;99.90;;;;;;5030195;28;20188;-76
2021/05/09 05:21:05;;;;;;;11.57;4.13;;;21.10;99.90;;;;;;5029893;28;20214;-74
2021/05/09 05:23:33;;;;;;;12.53;3.73;;;21.20;99.90;;;;;;5017269;28;20223;-76
2021/05/09 05:26:03;;;;;;;13.40;3.70;;;21.10;99.90;;;;;;5021472;28;20325;-75
2021/05/09 05:28:29;;;;;;;15.03;4.07;;;21.00;99.90;;;;;;5026650;28;20196;-75
2021/05/09 05:30:55;;;;;;;14.87;4.07;;;21.00;99.90;;;;;;5030374;28;20187;-75
2021/05/09 05:33:35;;;;;;;15.23;3.70;;;21.10;99.90;;;;;;5032047;28;20262;-76
2021/05/09 05:36:05;;;;;;;10.60;3.23;;;21.10;99.90;;;;;;5032331;28;20212;-76
2021/05/09 05:38:32;;;;;;;10.70;3.60;;;21.20;99.90;;;;;;5029305;28;20192;-76
2021/05/09 05:41:00;;;;;;;12.37;3.43;;;21.30;99.90;;;;;;5031171;28;20577;-76
2021/05/09 05:43:29;;;;;;;7.90;3.57;;;21.40;99.90;;;;;;5028914;28;20220;-75
2021/05/09 05:45:58;;;;;;;17.23;4.17;;;21.50;99.90;;;;;;5015201;28;20230;-75
2021/05/09 05:48:26;;;;;;;9.83;3.43;;;21.60;99.90;;;;;;5031167;28;20220;-76
2021/05/09 05:50:54;;;;;;;11.97;3.10;;;21.60;99.90;;;;;;5022240;28;20328;-78
2021/05/09 05:53:23;;;;;;;9.10;3.77;;;21.70;99.90;;;;;;5033379;28;20207;-78
2021/05/09 05:55:51;;;;;;;12.33;3.63;;;21.80;99.90;;;;;;5012499;28;20240;-76
2021/05/09 05:58:18;;;;;;;9.33;3.00;;;21.90;99.90;;;;;;5031673;28;20184;-74
2021/05/09 06:00:46;;;;;;;13.77;3.83;;;21.90;99.90;;;;;;5032129;28;20195;-77
2021/05/09 06:03:12;;;;;;;9.43;3.27;;;22.10;99.90;;;;;;5036230;28;20242;-76
2021/05/09 06:05:42;;;;;;;10.20;3.77;;;22.10;99.90;;;;;;5013371;28;20208;-78
2021/05/09 06:08:08;;;;;;;9.80;3.40;;;22.30;99.90;;;;;;5025124;28;20348;-77
2021/05/09 06:10:34;;;;;;;14.77;3.17;;;22.30;99.90;;;;;;5025914;28;20216;-76
2021/05/09 06:13:01;;;;;;;7.97;3.07;;;22.50;99.90;;;;;;5014386;28;20212;-77
2021/05/09 06:15:29;;;;;;;8.97;2.80;;;22.70;99.90;;;;;;5013516;28;20201;-76
2021/05/09 06:17:55;;;;;;;6.87;2.87;;;22.70;99.90;;;;;;5033828;28;20265;-77
2021/05/09 06:20:22;;;;;;;9.33;3.07;;;22.90;99.90;;;;;;5030263;28;20184;-76
2021/05/09 06:22:49;;;;;;;11.63;3.30;;;23.20;99.90;;;;;;5030610;28;20680;-79
2021/05/09 06:25:15;;;;;;;11.80;3.20;;;23.20;99.90;;;;;;5016314;28;20184;-77
2021/05/09 06:27:42;;;;;;;8.47;3.07;;;23.30;99.90;;;;;;5037601;28;20624;-74
2021/05/09 06:30:09;;;;;;;7.77;2.80;;;23.20;99.90;;;;;;5017255;28;20665;-76
2021/05/09 06:32:35;;;;;;;11.20;3.63;;;23.20;99.90;;;;;;5045494;28;20541;-76
2021/05/09 06:35:02;;;;;;;12.67;3.30;;;23.40;99.90;;;;;;5044731;28;20231;-78
2021/05/09 06:37:30;;;;;;;20.60;3.40;;;23.50;99.90;;;;;;5015959;28;20212;-74
2021/05/09 06:39:57;;;;;;;12.23;3.67;;;23.80;99.90;;;;;;5018361;28;20953;-76
2021/05/09 06:42:23;;;;;;;13.33;3.23;;;23.90;99.90;;;;;;5023828;28;20706;-79
2021/05/09 06:44:55;;;;;;;14.13;3.47;;;23.80;99.90;;;;;;5039786;28;20217;-77
2021/05/09 06:47:21;;;;;;;13.93;3.00;;;23.80;99.90;;;;;;5030470;28;20206;-78
2021/05/09 06:49:48;;;;;;;13.50;3.17;;;23.90;99.90;;;;;;5038343;28;20192;-76
2021/05/09 06:52:14;;;;;;;10.73;3.13;;;24.00;99.90;;;;;;5021543;28;20242;-77
2021/05/09 06:54:41;;;;;;;10.57;3.07;;;24.10;99.90;;;;;;5029199;28;20200;-79
2021/05/09 06:57:08;;;;;;;10.83;3.10;;;24.20;99.90;;;;;;5032312;28;20188;-78
2021/05/09 06:59:34;;;;;;;11.53;2.90;;;24.30;99.90;;;;;;5018769;28;20193;-78
2021/05/09 07:02:00;;;;;;;13.83;3.43;;;24.50;99.90;;;;;;5042460;28;20322;-78
2021/05/09 07:04:27;;;;;;;10.77;3.10;;;24.60;99.90;;;;;;5031520;28;20188;-79
2021/05/09 07:06:53;;;;;;;8.20;3.20;;;24.60;99.90;;;;;;5013976;28;20265;-77
2021/05/09 07:09:19;;;;;;;12.53;3.00;;;24.60;99.90;;;;;;5026543;28;20188;-75
2021/05/09 07:11:45;;;;;;;10.32;2.95;;;24.70;99.90;;;;;;5028794;28;20887;-76
2021/05/09 07:14:12;;;;;;;12.93;3.05;;;24.70;99.90;;;;;;5034084;28;20238;-74
2021/05/09 07:16:39;;;;;;;9.33;2.60;;;24.70;99.90;;;;;;5032195;28;20248;-74
2021/05/09 07:19:07;;;;;;;12.50;2.87;;;24.70;99.90;;;;;;5028771;28;20212;-75
2021/05/09 07:21:47;;;;;;;8.68;2.67;;;24.90;99.90;;;;;;5032768;28;20554;-75
2021/05/09 07:24:13;;;;;;;13.03;2.80;;;25.00;99.90;;;;;;5034530;28;20217;-75
2021/05/09 07:26:39;;;;;;;18.45;2.85;;;25.10;99.90;;;;;;5050468;28;20203;-75
2021/05/09 07:29:06;;;;;;;12.23;2.87;;;25.10;99.90;;;;;;5017808;28;20188;-77
2021/05/09 07:31:32;;;;;;;10.00;2.80;;;25.30;99.40;;;;;;5014472;28;20828;-75
2021/05/09 07:33:59;;;;;;;9.13;3.00;;;25.30;99.90;;;;;;5036090;28;20692;-76
2021/05/09 07:36:29;;;;;;;9.83;2.60;;;25.30;99.90;;;;;;5010404;28;20216;-75
2021/05/09 07:38:55;;;;;;;5.65;2.13;;;25.40;97.20;;;;;;5022763;28;20192;-74
2021/05/09 07:41:21;;;;;;;11.93;2.90;;;25.40;94.30;;;;;;5010259;28;20207;-76
2021/05/09 07:43:48;;;;;;;7.95;2.35;;;25.60;99.90;;;;;;5028774;28;20219;-75
2021/05/09 07:46:15;;;;;;;11.43;2.53;;;25.80;95.40;;;;;;5030871;28;20180;-78
2021/05/09 07:48:41;;;;;;;11.93;2.70;;;25.80;93.60;;;;;;5032127;28;20180;-77
2021/05/09 07:51:08;;;;;;;9.77;3.50;;;26.00;99.90;;;;;;5013482;28;20184;-74
2021/05/09 07:53:34;;;;;;;17.85;3.33;;;26.20;99.90;;;;;;5012366;28;20234;-75
2021/05/09 07:56:00;;;;;;;11.25;3.47;;;26.30;99.90;;;;;;5031516;28;20204;-75
2021/05/09 07:58:26;;;;;;;17.23;3.63;;;26.20;99.90;;;;;;5015205;28;20668;-75
2021/05/09 08:00:53;;;;;;;8.68;3.13;;;26.10;99.90;;;;;;5015444;28;20199;-77
2021/05/09 08:03:20;;;;;;;14.15;3.95;;;26.10;99.90;;;;;;5008748;28;20672;-75
2021/05/09 08:05:47;;;;;;;12.13;4.10;;;25.90;99.90;;;;;;5040442;28;20213;-75
2021/05/09 08:08:14;;;;;;;14.27;3.50;;;26.00;99.90;;;;;;5029635;28;20202;-74
2021/05/09 08:10:48;;;;;;;13.88;4.15;;;26.20;99.90;;;;;;5024346;28;20187;-78
2021/05/09 08:13:16;;;;;;;9.35;2.95;;;26.10;99.90;;;;;;5043321;28;20675;-78
2021/05/09 08:15:45;;;;;;;14.13;4.25;;;26.00;99.90;;;;;;5029671;28;20231;-75
2021/05/09 08:18:13;;;;;;;10.27;3.22;;;26.20;99.90;;;;;;5022665;28;20189;-76
2021/05/09 08:20:48;;;;;;;11.35;3.10;;;26.20;99.90;;;;;;5020643;28;20637;-78
2021/05/09 08:23:17;;;;;;;9.63;3.60;;;26.20;99.90;;;;;;5019474;28;20254;-76
2021/05/09 08:25:50;;;;;;;11.00;3.25;;;26.40;99.90;;;;;;5014234;28;20491;-75
2021/05/09 08:28:18;;;;;;;13.27;3.83;;;26.50;99.90;;;;;;5019405;28;20328;-74
2021/05/09 08:30:45;;;;;;;16.00;3.53;;;26.40;99.90;;;;;;5045645;28;20681;-75
2021/05/09 08:33:12;;;;;;;15.10;3.58;;;26.50;99.90;;;;;;5023180;28;20184;-75
2021/05/09 08:35:41;;;;;;;12.10;3.35;;;26.70;99.90;;;;;;5034406;28;20215;-75
2021/05/09 08:38:09;;;;;;;11.80;3.47;;;26.70;99.90;;;;;;5025436;28;20561;-75
2021/05/09 08:40:54;;;;;;;13.50;3.45;;;26.50;99.90;;;;;;5037972;28;20189;-75
2021/05/09 08:43:20;;;;;;;17.90;3.63;;;26.60;99.90;;;;;;5017027;28;20229;-76
2021/05/09 08:45:47;;;;;;;10.93;3.38;;;26.90;99.90;;;;;;5021882;28;20206;-75
2021/05/09 08:48:19;;;;;;;9.95;3.80;;;27.10;99.90;;;;;;5017111;28;20180;-76
2021/05/09 08:50:51;;;;;;;13.65;3.20;;;26.90;99.90;;;;;;5031097;28;20184;-76
2021/05/09 08:53:19;;;;;;;13.18;3.80;;;26.90;99.90;;;;;;5047753;28;20195;-75
2021/05/09 08:55:46;;;;;;;17.02;4.47;;;26.80;99.90;;;;;;5012335;28;20195;-77
2021/05/09 08:58:26;;;;;;;13.38;3.58;;;26.90;99.90;;;;;;5009843;28;20193;-76
2021/05/09 09:00:53;;;;;;;11.23;3.60;;;27.00;99.90;;;;;;5026717;28;20188;-75
2021/05/09 09:03:20;;;;;;;18.70;3.80;;;27.10;99.90;;;;;;5033490;28;20226;-74
2021/05/09 09:05:51;;;;;;;17.45;3.92;;;27.10;99.90;;;;;;5013819;28;20189;-74
2021/05/09 09:08:19;;;;;;;13.45;3.50;;;27.20;99.90;;;;;;5006596;28;20529;-75
2021/05/09 09:10:51;;;;;;;13.88;3.50;;;27.40;99.90;;;;;;5031851;28;20180;-76
2021/05/09 09:13:33;;;;;;;11.70;3.25;;;27.40;99.90;;;;;;5026996;28;20188;-76
2021/05/09 09:16:04;;;;;;;20.25;3.38;;;27.40;99.90;;;;;;5008363;28;20192;-79
2021/05/09 09:18:42;;;;;;;12.43;3.47;;;27.70;99.90;;;;;;5047156;28;20265;-76
2021/05/09 09:21:29;;;;;;;7.38;2.75;;;27.90;99.90;;;;;;5013109;28;20192;-74
2021/05/09 09:24:06;;;;;;;14.02;3.40;;;27.90;99.90;;;;;;5032558;28;20231;-76
2021/05/09 09:26:48;;;;;;;12.95;2.85;;;28.20;98.70;;;;;;5051558;28;20190;-77
2021/05/09 09:29:28;;;;;;;17.75;3.30;;;28.30;99.90;;;;;;5006900;28;21117;-76
2021/05/09 09:32:08;;;;;;;10.25;2.90;;;28.30;99.90;;;;;;5045446;28;20188;-75
2021/05/09 09:34:39;;;;;;;12.20;3.40;;;28.30;99.40;;;;;;5022119;28;20625;-75
2021/05/09 09:37:06;;;;;;;16.98;3.08;;;28.20;98.50;;;;;;5023139;28;20309;-76
2021/05/09 09:39:49;;;;;;;16.52;3.20;;;28.30;99.90;;;;;;5008780;28;20172;-75
2021/05/09 09:42:36;;;;;;;16.77;3.67;;;28.40;97.10;;;;;;5026309;28;20191;-76
2021/05/09 09:45:25;;;;;;;12.82;3.25;;;28.40;98.30;;;;;;5034438;28;20237;-76
2021/05/09 09:48:03;;;;;;;14.50;4.18;;;28.60;97.90;;;;;;5025226;28;21028;-76
2021/05/09 09:50:39;;;;;;;8.45;3.28;;;28.70;96.90;;;;;;5028203;28;20322;-77
2021/05/09 09:53:32;;;;;;;11.43;3.20;;;28.60;96.50;;;;;;5026019;28;20192;-74
2021/05/09 09:56:09;;;;;;;12.27;3.28;;;28.80;96.70;;;;;;5020514;28;20331;-75
2021/05/09 09:59:04;;;;;;;13.93;3.72;;;28.80;97.00;;;;;;5038763;28;20892;-74
2021/05/09 10:01:42;;;;;;;10.93;3.63;;;28.90;95.80;;;;;;5008548;28;20231;-75
2021/05/09 10:04:14;;;;;;;10.68;3.22;;;29.00;96.70;;;;;;5011620;28;20235;-74
2021/05/09 10:06:41;;;;;;;9.18;3.08;;;29.00;96.20;;;;;;5011428;28;20184;-76
2021/05/09 10:09:10;;;;;;;11.13;3.10;;;29.20;95.10;;;;;;5011311;28;21958;-74
2021/05/09 10:11:38;;;;;;;7.68;2.83;;;29.00;95.20;;;;;;5026786;28;20234;-74
2021/05/09 10:14:06;;;;;;;12.82;3.53;;;29.00;94.50;;;;;;5032362;28;20212;-75
2021/05/09 10:16:42;;;;;;;15.25;3.42;;;29.00;95.30;;;;;;5023476;28;20219;-75
2021/05/09 10:19:14;;;;;;;13.18;3.95;;;29.40;94.00;;;;;;5031769;28;20262;-76
2021/05/09 10:21:42;;;;;;;14.55;3.08;;;29.40;93.70;;;;;;5030280;28;20195;-72
2021/05/09 10:24:23;;;;;;;7.85;2.78;;;29.50;94.00;;;;;;5020848;28;20216;-73
2021/05/09 10:27:09;;;;;;;10.90;2.88;;;29.70;92.40;;;;;;5044690;28;20542;-73
2021/05/09 10:29:37;;;;;;;12.88;2.92;;;29.80;92.00;;;;;;5008415;28;20191;-73
2021/05/09 10:32:35;;;;;;;14.38;3.00;;;29.70;93.90;;;;;;5018052;28;20680;-71
2021/05/09 10:35:10;;;;;;;13.70;3.55;;;29.80;92.70;;;;;;5034450;28;20239;-74
2021/05/09 10:37:42;;;;;;;11.07;3.67;;;29.80;94.20;;;;;;5037973;28;20179;-74
2021/05/09 10:40:34;;;;;;;15.10;3.45;;;29.50;94.40;;;;;;5031821;28;20191;-75
2021/05/09 10:43:03;;;;;;;13.18;3.25;;;29.40;94.50;;;;;;5028478;28;20212;-73
2021/05/09 10:45:36;;;;;;;11.50;3.60;;;29.20;95.40;;;;;;5023621;28;20258;-75
2021/05/09 10:50:44;;;;;;;12.32;3.33;;;29.00;96.20;;;;;;5028883;28;20283;-75
2021/05/09 10:53:31;;;;;;;16.75;3.50;;;28.90;97.00;;;;;;5029538;28;20672;-75
2021/05/09 10:55:59;;;;;;;8.90;3.05;;;28.90;93.00;;;;;;5017401;28;20202;-75
2021/05/09 10:58:47;;;;;;;8.07;2.92;;;28.70;90.50;;;;;;5035050;28;20199;-75
2021/05/09 11:01:35;;;;;;;26.58;3.25;;;28.80;90.60;;;;;;5014384;28;20279;-75
2021/05/09 11:04:11;;;;;;;12.32;2.80;;;28.70;91.60;;;;;;5024439;28;20215;-75
2021/05/09 11:06:45;;;;;;;11.80;3.17;;;28.70;91.80;;;;;;5020926;28;20203;-73
2021/05/09 11:09:21;;;;;;;7.43;3.28;;;28.50;92.40;;;;;;5025446;28;20203;-73
2021/05/09 11:11:48;;;;;;;11.13;3.20;;;28.30;94.10;;;;;;5023469;28;20208;-72
2021/05/09 11:14:19;;;;;;;13.65;3.42;;;28.30;95.70;;;;;;5014043;28;20266;-74
2021/05/09 11:17:07;;;;;;;11.82;2.88;;;28.20;95.50;;;;;;5028496;28;20234;-75
2021/05/09 11:19:44;;;;;;;12.68;3.63;;;27.90;96.60;;;;;;5027297;28;20195;-75
2021/05/09 11:22:12;;;;;;;9.13;3.03;;;27.90;99.70;;;;;;5031758;28;20650;-73
2021/05/09 11:24:41;;;;;;;13.30;4.07;;;27.90;98.20;;;;;;5013819;28;20274;-72
2021/05/09 11:27:14;;;;;;;11.38;3.25;;;28.00;97.70;;;;;;5024811;28;20768;-74
2021/05/09 11:29:49;;;;;;;12.20;3.78;;;28.00;98.30;;;;;;5032685;28;20223;-74
2021/05/09 11:32:19;;;;;;;16.38;3.90;;;27.90;97.30;;;;;;5028379;28;20653;-72
2021/05/09 11:34:55;;;;;;;12.63;3.40;;;28.00;99.60;;;;;;5029966;28;20196;-71
2021/05/09 11:37:30;;;;;;;21.00;4.40;;;28.00;99.90;;;;;;5015362;28;20204;-72
2021/05/09 11:40:01;;;;;;;11.65;3.17;;;27.90;99.90;;;;;;5008194;28;20188;-70
2021/05/09 11:42:29;;;;;;;11.18;3.53;;;27.80;99.90;;;;;;5020020;28;20223;-71
2021/05/09 11:44:59;;;;;;;11.82;3.53;;;27.70;99.90;;;;;;5024147;28;20294;-73
2021/05/09 11:47:32;;;;;;;9.95;3.10;;;27.80;99.90;;;;;;5024764;28;20200;-74
2021/05/09 11:50:07;;;;;;;14.48;3.58;;;27.50;99.90;;;;;;5007966;28;20219;-72
2021/05/09 11:52:40;;;;;;;13.40;3.58;;;27.40;99.90;;;;;;5035222;28;20195;-72
2021/05/09 11:55:15;;;;;;;10.45;3.13;;;27.50;99.90;;;;;;5012451;28;20333;-72
2021/05/09 11:57:48;;;;;;;17.05;3.15;;;27.50;99.80;;;;;;5020107;28;20203;-74
2021/05/09 12:00:17;;;;;;;287.98;17.85;;;27.50;98.50;;;;;;5015901;28;20270;-74
2021/05/09 12:02:49;;;;;;;8.43;3.22;;;27.60;99.10;;;;;;5021348;28;20211;-73
2021/05/09 12:05:18;;;;;;;9.95;3.22;;;27.70;98.00;;;;;;5025335;28;20199;-69
2021/05/09 12:07:53;;;;;;;11.43;3.05;;;27.70;98.30;;;;;;5028551;28;21318;-69
2021/05/09 12:10:28;;;;;;;10.20;3.08;;;27.80;97.80;;;;;;5024552;28;20179;-68
2021/05/09 12:13:06;;;;;;;9.35;2.85;;;27.40;98.10;;;;;;5026506;28;20188;-69
2021/05/09 12:15:39;;;;;;;11.05;3.22;;;27.30;97.70;;;;;;5027598;28;20237;-71
2021/05/09 12:18:07;;;;;;;13.27;3.10;;;27.10;98.10;;;;;;5029998;28;20184;-70
2021/05/09 12:20:43;;;;;;;11.43;3.20;;;27.50;97.70;;;;;;5028962;28;20188;-68
2021/05/09 12:23:25;;;;;;;16.75;3.22;;;27.60;96.30;;;;;;5022573;28;20584;-69
2021/05/09 12:25:52;;;;;;;8.40;2.50;;;27.60;97.30;;;;;;5028170;28;20306;-74
2021/05/09 12:28:32;;;;;;;7.35;2.90;;;27.40;97.10;;;;;;5025395;28;20268;-73
2021/05/09 12:31:11;;;;;;;11.25;3.20;;;27.40;96.40;;;;;;5028493;28;20803;-73
2021/05/09 12:33:37;;;;;;;12.23;3.25;;;27.40;95.60;;;;;;5028165;28;20210;-70
2021/05/09 12:36:20;;;;;;;7.93;2.97;;;27.40;95.80;;;;;;5026481;28;20212;-72
2021/05/09 12:38:46;;;;;;;13.32;3.13;;;27.30;95.10;;;;;;5027553;28;20185;-74
2021/05/09 12:41:15;;;;;;;6.60;2.72;;;27.30;94.70;;;;;;5024237;28;20235;-75
2021/05/09 12:43:45;;;;;;;15.18;3.20;;;27.10;93.10;;;;;;5020404;28;20207;-72
2021/05/09 12:46:37;;;;;;;12.43;2.30;;;27.20;92.90;;;;;;5026540;28;20188;-70
2021/05/09 12:49:20;;;;;;;10.98;2.70;;;27.10;92.00;;;;;;5037275;28;20188;-71
2021/05/09 12:52:02;;;;;;;10.23;3.00;;;27.10;91.80;;;;;;5023439;28;20185;-73
2021/05/09 12:54:49;;;;;;;8.07;2.88;;;27.00;91.80;;;;;;5038659;28;20337;-73
2021/05/09 12:57:24;;;;;;;8.98;2.70;;;27.00;92.10;;;;;;5026759;28;20786;-72